Time;durP1;ratioP1;P1;durP2;ratioP2;P2;SDS_P1;SDS_P2;PMS_P1;PMS_P2;Temp;Humidity;BMP_temperature;BMP_pressure;BME280_temperature;BME280_humidity;BME280_pressure;Samples;Min_cycle;Max_cycle;Signal;HPM_P1;HPM_P2
2021/05/17 00:00:11;;;;;;;7.17;4.97;;;;;;;16.55;86.00;100240.98;1706930;83;21088;-75
2021/05/17 00:02:43;;;;;;;9.15;5.67;;;;;;;16.54;85.57;100230.61;1691233;84;20949;-72
2021/05/17 00:05:10;;;;;;;7.17;4.97;;;;;;;16.51;85.30;100230.91;1689958;84;21057;-76
2021/05/17 00:07:37;;;;;;;6.37;4.30;;;;;;;16.50;85.07;100230.56;1662516;85;21089;-77
2021/05/17 00:10:06;;;;;;;6.45;4.12;;;;;;;16.48;84.86;100234.66;1678768;84;21006;-84
2021/05/17 00:12:33;;;;;;;6.37;4.53;;;;;;;16.48;84.66;100238.59;1720864;83;20989;-75
2021/05/17 00:15:06;;;;;;;8.30;5.28;;;;;;;16.50;84.43;100247.11;1712636;83;21055;-76
2021/05/17 00:17:33;;;;;;;6.35;5.40;;;;;;;16.49;84.31;100245.96;1717995;82;21589;-79
2021/05/17 00:20:03;;;;;;;10.53;5.40;;;;;;;16.45;84.34;100239.36;1716474;82;21484;-76
2021/05/17 00:22:29;;;;;;;6.03;4.80;;;;;;;16.42;84.45;100237.88;1717285;82;20988;-75
2021/05/17 00:24:59;;;;;;;4.62;4.03;;;;;;;16.40;84.50;100239.31;1718160;82;20925;-77
2021/05/17 00:27:28;;;;;;;5.45;4.12;;;;;;;16.40;84.58;100241.94;1717555;83;20988;-74
2021/05/17 00:29:56;;;;;;;6.28;4.42;;;;;;;16.41;84.67;100247.52;1717785;83;21008;-78
2021/05/17 00:32:23;;;;;;;6.35;4.95;;;;;;;16.40;84.76;100243.25;1711819;83;21110;-75
2021/05/17 00:34:51;;;;;;;7.70;4.22;;;;;;;16.39;84.83;100244.72;1694180;84;20975;-75
2021/05/17 00:37:19;;;;;;;7.75;3.67;;;;;;;16.36;84.83;100241.92;1665083;84;20971;-74
2021/05/17 00:39:46;;;;;;;5.22;3.92;;;;;;;16.37;84.89;100248.78;1690405;84;21036;-74
2021/05/17 00:42:15;;;;;;;7.25;3.98;;;;;;;16.37;85.02;100248.78;1664795;85;20962;-75
2021/05/17 00:44:43;;;;;;;5.15;4.62;;;;;;;16.36;85.12;100247.16;1694205;83;21537;-75
2021/05/17 00:47:15;;;;;;;8.00;4.85;;;;;;;16.37;85.24;100238.79;1673247;84;20977;-72
2021/05/17 00:49:44;;;;;;;;;;;;;;;16.34;85.34;100236.47;1676527;85;20997;-74
2021/05/17 00:52:14;;;;;;;6.03;3.67;;;;;;;16.33;85.48;100241.39;1676694;85;20164;-75
2021/05/17 00:54:44;;;;;;;5.92;3.98;;;;;;;16.28;85.70;100243.13;1669869;85;21034;-74
2021/05/17 00:57:14;;;;;;;4.53;3.62;;;;;;;16.28;85.92;100237.06;1665438;82;21054;-73
2021/05/17 00:59:42;;;;;;;6.28;4.25;;;;;;;16.25;86.12;100238.19;1718527;82;21055;-74
2021/05/17 01:02:09;;;;;;;5.40;4.10;;;;;;;16.25;86.28;100232.12;1715602;82;21058;-74
2021/05/17 01:04:54;;;;;;;5.03;4.22;;;;;;;16.23;86.44;100233.59;1717062;82;21108;-76
2021/05/17 01:07:25;;;;;;;4.58;3.98;;;;;;;16.22;86.59;100228.49;1686561;83;21103;-74
2021/05/17 01:09:49;;;;;;;7.45;4.45;;;;;;;16.20;86.75;100231.27;1675753;83;21826;-76
2021/05/17 01:12:19;;;;;;;5.40;3.83;;;;;;;16.20;86.82;100226.52;1717480;83;20963;-78
2021/05/17 01:14:46;;;;;;;4.80;3.50;;;;;;;16.21;87.01;100220.32;1714868;82;21600;-79
2021/05/17 01:17:13;;;;;;;4.65;4.12;;;;;;;16.19;87.17;100209.16;1694783;84;21586;-73
2021/05/17 01:20:03;;;;;;;6.42;4.70;;;;;;;16.17;87.40;100215.03;1671106;85;21029;-74
2021/05/17 01:25:28;;;;;;;6.83;4.12;;;;;;;16.14;87.68;100217.95;1720180;83;21126;-73
2021/05/17 01:27:56;;;;;;;5.03;3.60;;;;;;;16.11;87.78;100215.14;1716298;83;20913;-72
2021/05/17 01:30:27;;;;;;;4.40;3.98;;;;;;;16.09;87.90;100214.45;1698739;84;20926;-74
2021/05/17 01:32:55;;;;;;;5.50;4.65;;;;;;;16.08;87.96;100215.41;1720847;83;21079;-73
2021/05/17 01:35:23;;;;;;;5.97;4.40;;;;;;;16.07;88.06;100211.17;1690971;84;21100;-74
2021/05/17 01:37:51;;;;;;;6.45;4.97;;;;;;;16.06;88.08;100212.61;1669467;85;21719;-72
2021/05/17 01:40:20;;;;;;;7.28;4.10;;;;;;;16.05;88.15;100217.52;1688183;84;21599;-73
2021/05/17 01:42:48;;;;;;;5.55;3.87;;;;;;;16.03;88.22;100215.52;1692249;84;21124;-75
2021/05/17 01:45:16;;;;;;;6.35;4.28;;;;;;;16.01;88.32;100210.92;1635548;86;21133;-73
2021/05/17 01:47:45;;;;;;;5.62;4.03;;;;;;;15.99;88.37;100210.23;1662060;85;21142;-74
2021/05/17 01:50:15;;;;;;;5.00;4.50;;;;;;;15.97;88.49;100205.64;1671221;84;21625;-70
2021/05/17 01:52:42;;;;;;;5.70;5.00;;;;;;;15.94;88.62;100201.53;1675583;85;21017;-69
2021/05/17 01:55:12;;;;;;;8.13;4.28;;;;;;;15.92;88.55;100204.79;1673935;85;21133;-71
2021/05/17 01:57:39;;;;;;;6.20;4.22;;;;;;;15.92;88.64;100209.19;1679531;85;21144;-73
2021/05/17 02:00:12;;;;;;;5.45;4.35;;;;;;;15.91;88.67;100206.23;1679085;85;21548;-74
2021/05/17 02:02:41;;;;;;;8.33;4.97;;;;;;;15.90;88.70;100204.09;1686044;84;20997;-77
2021/05/17 02:05:11;;;;;;;7.05;4.78;;;;;;;15.89;88.76;100203.74;1691915;81;20926;-75
2021/05/17 02:07:38;;;;;;;5.25;4.30;;;;;;;15.89;88.75;100204.57;1699741;82;20937;-72
2021/05/17 02:10:07;;;;;;;6.97;4.90;;;;;;;15.88;88.73;100204.73;1662787;85;21073;-73
2021/05/17 02:12:35;;;;;;;6.40;4.12;;;;;;;15.87;88.74;100203.08;1661868;85;21813;-79
2021/05/17 02:15:11;;;;;;;7.58;4.17;;;;;;;15.86;88.79;100198.33;1637073;86;20977;-73
2021/05/17 02:17:40;;;;;;;7.67;4.60;;;;;;;15.86;88.78;100193.57;1675161;84;20930;-76
2021/05/17 02:20:10;;;;;;;6.83;5.00;;;;;;;15.86;88.80;100194.88;1683282;84;21069;-72
2021/05/17 02:22:39;;;;;;;9.20;5.25;;;;;;;15.85;88.71;100197.18;1732162;82;21047;-74
2021/05/17 02:25:13;;;;;;;6.58;5.08;;;;;;;15.82;88.76;100193.06;1717431;82;21127;-73
2021/05/17 02:27:42;;;;;;;5.78;4.42;;;;;;;15.80;88.75;100194.98;1691648;84;20941;-76
2021/05/17 02:30:12;;;;;;;8.40;5.42;;;;;;;15.81;88.75;100197.13;1666525;86;21539;-74
2021/05/17 02:32:40;;;;;;;5.17;4.67;;;;;;;15.83;88.66;100202.54;1662792;84;21054;-73
2021/05/17 02:35:10;;;;;;;9.30;5.30;;;;;;;15.85;88.58;100203.72;1692083;84;21115;-79
2021/05/17 02:37:37;;;;;;;8.55;6.10;;;;;;;15.86;88.45;100202.73;1695977;84;21102;-76
2021/05/17 02:40:06;;;;;;;5.78;4.87;;;;;;;15.86;88.29;100208.79;1662496;85;21690;-75
2021/05/17 02:42:35;;;;;;;7.00;5.00;;;;;;;15.86;88.13;100208.79;1678379;84;21586;-76
2021/05/17 02:45:05;;;;;;;6.25;4.55;;;;;;;15.85;87.98;100208.47;1717571;83;21008;-75
2021/05/17 02:47:35;;;;;;;5.30;4.40;;;;;;;15.85;87.87;100204.55;1683702;85;21023;-79
2021/05/17 02:50:05;;;;;;;7.10;4.78;;;;;;;15.84;87.85;100202.89;1719399;83;21083;-74
2021/05/17 02:52:34;;;;;;;6.97;5.05;;;;;;;15.84;87.81;100205.51;1722540;82;20909;-74
2021/05/17 02:55:09;;;;;;;9.40;4.97;;;;;;;15.84;87.85;100205.98;1720280;83;21008;-75
2021/05/17 02:57:48;;;;;;;7.22;5.35;;;;;;;15.83;87.87;100205.16;1687154;83;21247;-80
2021/05/17 03:00:19;;;;;;;5.58;5.00;;;;;;;15.84;88.01;100209.91;1679452;84;20991;-80
2021/05/17 03:03:13;;;;;;;6.78;5.10;;;;;;;15.81;88.34;100208.41;1694909;84;21672;-80
2021/05/17 03:05:44;;;;;;;8.90;4.50;;;;;;;15.76;88.60;100211.94;1686662;84;21162;-72
2021/05/17 03:08:14;;;;;;;9.63;4.80;;;;;;;15.73;88.96;100217.45;1688892;82;21004;-73
2021/05/17 03:10:45;;;;;;;6.95;4.90;;;;;;;15.71;89.20;100221.19;1689599;84;21468;-75
2021/05/17 03:13:17;;;;;;;6.72;5.35;;;;;;;15.70;89.39;100222.15;1696180;84;21107;-78
2021/05/17 03:15:47;;;;;;;9.58;5.70;;;;;;;15.72;89.47;100226.77;1657096;86;21238;-77
2021/05/17 03:18:13;;;;;;;8.43;5.75;;;;;;;15.71;89.62;100222.02;1647282;86;21061;-80
2021/05/17 03:20:40;;;;;;;6.03;4.67;;;;;;;15.72;89.71;100227.61;1644890;86;20942;-76
2021/05/17 03:23:13;;;;;;;9.55;5.03;;;;;;;15.74;89.78;100230.06;1632523;86;21024;-74
2021/05/17 03:25:47;;;;;;;6.85;4.60;;;;;;;15.75;89.76;100229.10;1643980;85;21608;-75
2021/05/17 03:28:15;;;;;;;6.30;5.00;;;;;;;15.77;89.79;100229.77;1640258;86;21131;-83
2021/05/17 03:30:42;;;;;;;5.65;4.97;;;;;;;15.78;89.72;100231.42;1662785;85;21642;-77
2021/05/17 03:33:09;;;;;;;6.08;5.15;;;;;;;15.78;89.66;100225.72;1691813;84;21519;-76
2021/05/17 03:35:36;;;;;;;6.37;5.30;;;;;;;15.81;89.64;100229.83;1668475;86;21037;-74
2021/05/17 03:38:03;;;;;;;8.73;5.40;;;;;;;15.83;89.49;100228.70;1699454;84;20989;-73
2021/05/17 03:40:30;;;;;;;6.42;4.55;;;;;;;15.87;89.37;100230.07;1689604;84;21008;-72
2021/05/17 03:42:57;;;;;;;6.40;4.72;;;;;;;15.88;89.21;100236.14;1668366;86;20997;-73
2021/05/17 03:45:25;;;;;;;6.75;4.95;;;;;;;15.89;89.11;100235.97;1677387;84;20905;-70
2021/05/17 03:47:52;;;;;;;6.85;5.05;;;;;;;15.91;89.09;100241.55;1695387;84;21116;-72
2021/05/17 03:50:19;;;;;;;10.75;5.22;;;;;;;15.91;89.14;100239.77;1662872;85;21030;-72
2021/05/17 03:52:46;;;;;;;8.53;6.53;;;;;;;15.92;89.19;100244.04;1638284;85;21825;-74
2021/05/17 03:55:13;;;;;;;6.42;5.30;;;;;;;15.91;89.24;100234.53;1716279;82;21080;-77
2021/05/17 03:57:40;;;;;;;10.28;5.10;;;;;;;15.93;89.37;100235.20;1727253;82;21103;-73
2021/05/17 04:00:10;;;;;;;6.90;5.00;;;;;;;15.97;89.45;100242.28;1718398;83;21625;-78
2021/05/17 04:02:42;;;;;;;8.65;4.90;;;;;;;16.00;89.47;100231.52;1717637;82;21120;-76
2021/05/17 04:08:02;;;;;;;7.45;5.70;;;;;;;16.07;89.24;100233.41;1721250;83;21056;-81
2021/05/17 04:15:44;;;;;;;6.97;5.15;;;;;;;16.12;89.11;100231.17;1718127;83;21127;-73
2021/05/17 04:18:12;;;;;;;8.83;7.08;;;;;;;16.16;89.13;100235.15;1719357;83;21293;-75
2021/05/17 04:20:39;;;;;;;12.18;6.12;;;;;;;16.16;89.13;100238.24;1721788;82;21677;-75
2021/05/17 04:23:06;;;;;;;8.25;6.30;;;;;;;16.19;89.12;100242.70;1717012;82;21012;-76
2021/05/17 04:25:33;;;;;;;8.15;6.25;;;;;;;16.22;89.13;100245.51;1720128;83;20937;-76
2021/05/17 04:28:00;;;;;;;8.28;6.20;;;;;;;16.20;89.20;100244.36;1717050;82;20921;-75
2021/05/17 04:30:27;;;;;;;8.08;6.47;;;;;;;16.23;89.27;100245.38;1718630;82;21071;-71
2021/05/17 04:32:54;;;;;;;11.55;6.30;;;;;;;16.24;89.29;100252.23;1719797;83;21625;-74
2021/05/17 04:35:21;;;;;;;7.95;6.40;;;;;;;16.27;89.28;100248.02;1717851;82;21633;-72
2021/05/17 04:37:49;;;;;;;9.15;6.60;;;;;;;16.30;89.32;100251.67;1717124;82;21510;-74
2021/05/17 04:40:16;;;;;;;9.88;6.25;;;;;;;16.35;89.22;100248.12;1722049;83;20973;-70
2021/05/17 04:42:43;;;;;;;9.73;7.10;;;;;;;16.40;89.25;100256.82;1718396;83;21158;-74
2021/05/17 04:45:12;;;;;;;8.08;6.03;;;;;;;16.42;89.11;100261.45;1718312;83;21072;-70
2021/05/17 04:47:39;;;;;;;10.10;5.92;;;;;;;16.46;89.15;100259.36;1713192;83;21012;-75
2021/05/17 04:50:09;;;;;;;11.85;6.35;;;;;;;16.51;89.18;100258.41;1718331;83;20945;-83
2021/05/17 04:52:38;;;;;;;8.65;5.70;;;;;;;16.59;89.11;100255.41;1720811;82;21510;-75
2021/05/17 04:55:05;;;;;;;7.70;6.05;;;;;;;16.68;88.87;100265.50;1720057;82;21603;-77
2021/05/17 04:57:35;;;;;;;10.18;6.22;;;;;;;16.76;88.70;100259.01;1696292;84;21008;-76
2021/05/17 05:00:02;;;;;;;11.08;6.65;;;;;;;16.83;88.46;100259.58;1665128;86;21067;-75
2021/05/17 05:02:29;;;;;;;9.28;7.08;;;;;;;16.93;88.33;100276.05;1694929;84;21074;-70
2021/05/17 05:04:56;;;;;;;14.05;7.70;;;;;;;17.01;87.84;100273.96;1685309;83;21084;-76
2021/05/17 05:07:24;;;;;;;10.70;7.45;;;;;;;17.07;87.24;100279.11;1692854;83;21126;-73
2021/05/17 05:09:51;;;;;;;11.25;8.03;;;;;;;17.12;87.05;100276.36;1659777;85;21539;-72
2021/05/17 05:12:18;;;;;;;10.75;8.03;;;;;;;17.15;86.52;100278.67;1688219;84;21060;-74
2021/05/17 05:14:45;;;;;;;12.63;7.15;;;;;;;17.17;86.29;100281.13;1695646;83;21084;-74
2021/05/17 05:17:13;;;;;;;9.28;7.10;;;;;;;17.21;86.30;100279.85;1695270;82;20988;-78
2021/05/17 05:19:40;;;;;;;12.50;7.17;;;;;;;17.27;85.83;100284.48;1664726;86;21043;-76
2021/05/17 05:22:07;;;;;;;13.85;7.92;;;;;;;17.27;85.70;100287.94;1667778;84;21500;-76
2021/05/17 05:24:34;;;;;;;13.03;8.25;;;;;;;17.30;85.79;100289.42;1667633;84;21129;-71
2021/05/17 05:27:13;;;;;;;10.18;7.47;;;;;;;17.34;85.39;100287.66;1693877;84;21705;-71
2021/05/17 05:32:21;;;;;;;17.48;7.55;;;;;;;17.40;85.21;100288.84;1698455;83;21083;-72
2021/05/17 05:34:32;;;;;;;8.75;6.45;;;;;;;17.52;85.30;100291.53;1704006;83;21069;-76
2021/05/17 05:36:59;;;;;;;9.88;5.83;;;;;;;17.55;84.94;100298.30;1685520;83;20961;-71
2021/05/17 05:39:28;;;;;;;10.90;6.62;;;;;;;17.57;85.33;100302.44;1667602;85;21026;-70
2021/05/17 05:41:56;;;;;;;9.88;7.50;;;;;;;17.61;85.18;100305.59;1673116;85;21586;-72
2021/05/17 05:44:23;;;;;;;9.38;7.17;;;;;;;17.61;85.34;100299.02;1667868;84;21592;-73
2021/05/17 05:46:50;;;;;;;12.68;6.50;;;;;;;17.64;84.98;100303.48;1690797;84;21685;-75
2021/05/17 05:49:17;;;;;;;9.55;6.55;;;;;;;17.68;84.58;100307.90;1687922;84;21551;-70
2021/05/17 05:51:45;;;;;;;10.15;6.58;;;;;;;17.73;83.62;100313.04;1671761;84;21062;-74
2021/05/17 05:54:12;;;;;;;11.03;6.72;;;;;;;17.78;83.48;100313.87;1664545;85;20963;-76
2021/05/17 05:56:39;;;;;;;10.90;7.22;;;;;;;17.86;83.71;100309.98;1658132;85;21175;-73
2021/05/17 05:59:06;;;;;;;10.48;6.78;;;;;;;17.90;83.31;100308.70;1659923;84;21029;-73
2021/05/17 06:01:33;;;;;;;10.60;6.67;;;;;;;18.01;83.52;100311.52;1660904;84;21001;-72
2021/05/17 06:04:00;;;;;;;9.20;5.75;;;;;;;18.04;82.60;100299.39;1683656;84;21074;-70
2021/05/17 06:06:27;;;;;;;11.10;6.65;;;;;;;18.03;82.80;100305.65;1687205;83;21013;-78
2021/05/17 06:08:56;;;;;;;9.15;6.65;;;;;;;18.07;82.09;100305.16;1660000;84;21115;-73
2021/05/17 06:11:23;;;;;;;8.63;6.22;;;;;;;18.07;81.22;100305.64;1662683;84;21056;-74
2021/05/17 06:13:51;;;;;;;10.08;6.78;;;;;;;18.09;81.72;100308.47;1651870;85;21078;-72
2021/05/17 06:16:18;;;;;;;9.50;6.03;;;;;;;18.13;81.26;100306.32;1673594;85;21004;-71
2021/05/17 06:18:47;;;;;;;10.45;5.90;;;;;;;18.26;80.42;100307.53;1680625;84;21155;-74
2021/05/17 06:21:14;;;;;;;11.57;5.90;;;;;;;18.29;80.66;100316.41;1673257;83;21116;-70
2021/05/17 06:23:42;;;;;;;10.30;6.58;;;;;;;18.39;80.35;100317.10;1694220;83;21028;-84
2021/05/17 06:26:09;;;;;;;9.88;6.72;;;;;;;18.39;79.37;100319.73;1690953;84;21456;-73
2021/05/17 06:28:37;;;;;;;9.10;6.20;;;;;;;18.40;78.76;100321.38;1690775;83;21029;-81
2021/05/17 06:31:06;;;;;;;11.83;6.60;;;;;;;18.36;78.01;100321.36;1686939;83;21148;-75
2021/05/17 06:33:34;;;;;;;12.85;6.15;;;;;;;18.33;78.33;100314.28;1689076;83;21111;-73
2021/05/17 06:36:03;;;;;;;12.33;6.67;;;;;;;18.38;78.58;100315.45;1705906;81;21082;-80
2021/05/17 06:38:30;;;;;;;12.03;6.95;;;;;;;18.45;78.41;100315.14;1675649;84;20968;-77
2021/05/17 06:41:00;;;;;;;7.10;6.17;;;;;;;18.52;77.85;100317.16;1679136;84;21099;-71
2021/05/17 06:43:34;;;;;;;12.70;7.47;;;;;;;18.61;77.60;100315.70;1674705;84;21014;-78
2021/05/17 06:46:07;;;;;;;11.85;6.72;;;;;;;18.70;77.56;100321.30;1679518;84;21174;-75
2021/05/17 06:48:44;;;;;;;9.53;7.12;;;;;;;18.76;76.71;100315.92;1683776;84;21028;-79
2021/05/17 06:51:19;;;;;;;10.75;6.83;;;;;;;18.77;76.63;100312.28;1692543;84;21604;-75
2021/05/17 06:53:45;;;;;;;10.25;7.00;;;;;;;18.85;76.63;100318.88;1680375;84;21106;-74
2021/05/17 06:56:22;;;;;;;10.45;6.65;;;;;;;18.93;75.42;100316.25;1680805;84;21081;-73
2021/05/17 06:58:58;;;;;;;9.10;5.62;;;;;;;18.93;74.44;100316.25;1679618;84;21804;-73
2021/05/17 07:01:26;;;;;;;6.60;5.80;;;;;;;18.90;74.61;100320.52;1676819;82;21603;-74
2021/05/17 07:06:26;;;;;;;13.98;8.88;;;;;;;18.81;74.38;100313.61;1785152;76;21553;-79
2021/05/17 07:14:13;;;;;;;10.95;5.30;;;;;;;18.95;74.30;100317.72;1778628;80;21153;-77
2021/05/17 07:16:43;;;;;;;7.50;5.30;;;;;;;19.10;73.94;100314.45;1747673;80;21002;-73
2021/05/17 07:19:11;;;;;;;7.80;5.67;;;;;;;19.29;72.83;100311.00;1774789;80;21061;-78
2021/05/17 07:24:28;;;;;;;6.83;5.28;;;;;;;19.52;71.77;100325.66;1752181;81;21097;-77
2021/05/17 07:26:56;;;;;;;9.40;5.20;;;;;;;19.61;70.71;100315.44;1751970;80;21607;-72
2021/05/17 07:29:23;;;;;;;7.92;4.83;;;;;;;19.66;69.75;100307.02;1752170;81;21745;-75
2021/05/17 07:31:52;;;;;;;9.00;5.12;;;;;;;19.71;69.16;100308.67;1750938;80;21131;-72
2021/05/17 07:34:21;;;;;;;7.45;4.50;;;;;;;19.76;69.08;100304.53;1752094;81;20968;-73
2021/05/17 07:36:50;;;;;;;10.00;4.62;;;;;;;19.80;68.16;100303.22;1751973;80;21705;-73
2021/05/17 07:39:17;;;;;;;10.63;5.10;;;;;;;19.84;68.11;100302.39;1752380;81;21004;-77
2021/05/17 07:41:46;;;;;;;10.28;4.90;;;;;;;19.83;67.93;100302.05;1748594;80;21024;-74
2021/05/17 07:44:14;;;;;;;8.13;4.80;;;;;;;19.88;67.89;100304.48;1748404;81;21081;-75
2021/05/17 07:46:42;;;;;;;12.75;5.15;;;;;;;19.91;66.48;100298.09;1753121;81;21048;-76
2021/05/17 07:49:12;;;;;;;7.47;4.45;;;;;;;19.86;66.66;100295.95;1749649;80;21464;-73
2021/05/17 07:51:42;;;;;;;7.47;4.75;;;;;;;19.91;67.29;100289.66;1722017;81;21156;-76
2021/05/17 07:54:11;;;;;;;9.35;4.20;;;;;;;19.96;67.24;100288.68;1722316;81;21156;-77
2021/05/17 07:56:38;;;;;;;10.08;4.95;;;;;;;20.07;66.76;100281.70;1722342;83;21032;-74
2021/05/17 07:59:06;;;;;;;6.65;4.35;;;;;;;20.22;66.22;100284.95;1722284;81;21085;-78
2021/05/17 08:01:34;;;;;;;5.75;4.00;;;;;;;20.41;66.17;100277.46;1721949;81;21135;-74
2021/05/17 08:04:01;;;;;;;6.92;4.47;;;;;;;20.65;64.94;100275.65;1722261;81;21268;-71
2021/05/17 08:06:29;;;;;;;7.12;3.67;;;;;;;20.76;63.94;100269.48;1713316;81;21669;-73
2021/05/17 08:09:13;;;;;;;6.60;3.35;;;;;;;20.75;62.19;100272.28;1711908;82;21281;-73
2021/05/17 08:11:40;;;;;;;10.08;4.03;;;;;;;20.70;62.93;100268.88;1714194;83;21046;-75
2021/05/17 08:14:07;;;;;;;7.33;5.10;;;;;;;20.68;63.19;100266.89;1713910;82;21167;-72
2021/05/17 08:16:35;;;;;;;8.03;5.35;;;;;;;20.67;65.37;100273.67;1712571;82;21686;-68
2021/05/17 08:19:04;;;;;;;13.60;7.47;;;;;;;20.49;66.31;100273.45;1714041;83;21081;-81
2021/05/17 08:21:32;;;;;;;10.72;5.55;;;;;;;20.35;67.11;100276.02;1712735;83;21048;-76
2021/05/17 08:23:59;;;;;;;5.83;4.67;;;;;;;20.35;67.74;100266.80;1711673;82;21160;-72
2021/05/17 08:26:27;;;;;;;6.10;5.12;;;;;;;20.38;67.77;100275.17;1711639;82;21101;-75
2021/05/17 08:28:54;;;;;;;8.73;6.00;;;;;;;20.30;68.02;100273.89;1711295;83;21105;-74
2021/05/17 08:31:23;;;;;;;8.25;5.87;;;;;;;20.27;68.18;100268.97;1711503;83;21113;-73
2021/05/17 08:33:51;;;;;;;9.65;7.05;;;;;;;20.20;68.44;100264.55;1711884;82;21678;-70
2021/05/17 08:36:18;;;;;;;7.95;4.80;;;;;;;20.16;68.25;100267.19;1711859;83;21560;-73
2021/05/17 08:38:45;;;;;;;7.75;4.83;;;;;;;20.16;68.72;100268.51;1711660;83;21116;-71
2021/05/17 08:41:13;;;;;;;6.50;4.75;;;;;;;20.20;68.51;100267.97;1711481;83;21035;-71
2021/05/17 08:43:42;;;;;;;5.55;4.75;;;;;;;20.24;67.96;100259.23;1711762;83;21198;-71
2021/05/17 08:46:10;;;;;;;6.50;5.53;;;;;;;20.23;68.08;100266.31;1711644;83;21164;-73
2021/05/17 08:48:48;;;;;;;6.17;4.80;;;;;;;20.24;67.62;100259.23;1711938;83;21105;-73
2021/05/17 08:51:25;;;;;;;8.45;4.67;;;;;;;20.28;67.32;100258.76;1727071;80;21053;-66
2021/05/17 08:53:54;;;;;;;7.35;5.30;;;;;;;20.34;66.78;100257.23;1718978;80;21041;-71
2021/05/17 08:56:22;;;;;;;10.00;5.55;;;;;;;20.29;66.94;100258.27;1711525;82;20977;-75
2021/05/17 08:58:58;;;;;;;9.98;6.05;;;;;;;20.25;67.60;100260.88;1721160;82;21033;-73
2021/05/17 09:01:26;;;;;;;13.40;5.58;;;;;;;20.30;67.79;100257.25;1719270;82;21005;-73
2021/05/17 09:04:02;;;;;;;8.50;6.10;;;;;;;20.30;67.90;100251.98;1740796;82;21036;-70
2021/05/17 09:06:56;;;;;;;10.08;5.78;;;;;;;20.29;68.09;100256.45;1741476;81;21647;-73
2021/05/17 09:09:36;;;;;;;12.05;5.85;;;;;;;20.35;67.94;100250.98;1717886;82;21670;-70
2021/05/17 09:12:11;;;;;;;10.18;5.90;;;;;;;20.45;67.58;100249.74;1740876;82;21044;-76
2021/05/17 09:14:41;;;;;;;9.25;6.12;;;;;;;20.40;66.87;100254.73;1741572;80;21074;-73
2021/05/17 09:17:12;;;;;;;11.75;5.70;;;;;;;20.29;66.91;100243.77;1741218;82;21492;-72
2021/05/17 09:19:41;;;;;;;17.73;5.90;;;;;;;20.26;67.24;100249.36;1740965;82;21127;-73
2021/05/17 09:22:12;;;;;;;6.40;5.17;;;;;;;20.33;66.59;100251.14;1741044;82;21008;-72
2021/05/17 09:24:48;;;;;;;8.25;4.70;;;;;;;20.36;66.18;100249.47;1741308;82;20969;-74
2021/05/17 09:27:28;;;;;;;8.28;5.05;;;;;;;20.43;66.16;100248.28;1741346;82;21073;-78
2021/05/17 09:30:04;;;;;;;8.83;4.72;;;;;;;20.38;66.05;100250.63;1741327;82;21049;-75
2021/05/17 09:32:37;;;;;;;6.62;5.12;;;;;;;20.35;66.06;100245.71;1740942;80;21467;-71
2021/05/17 09:35:10;;;;;;;9.08;5.22;;;;;;;20.35;65.95;100248.34;1741520;82;20958;-73
2021/05/17 09:38:06;;;;;;;8.68;5.50;;;;;;;20.32;67.07;100251.33;1741299;80;21131;-75
2021/05/17 09:40:26;;;;;;;6.47;5.35;;;;;;;20.35;67.03;100246.53;1756185;81;21142;-74
2021/05/17 09:43:09;;;;;;;11.18;5.85;;;;;;;20.26;67.19;100250.19;1795232;78;21991;-72
2021/05/17 09:45:42;;;;;;;8.18;5.10;;;;;;;20.21;67.76;100259.58;1794693;79;21078;-74
2021/05/17 09:48:19;;;;;;;10.40;5.42;;;;;;;20.16;66.99;100261.92;1794428;78;21077;-69
2021/05/17 09:51:12;;;;;;;10.15;5.72;;;;;;;20.04;66.90;100261.47;1795001;79;20934;-74
2021/05/17 09:53:47;;;;;;;8.45;5.12;;;;;;;19.98;66.75;100260.84;1794598;78;21606;-82
2021/05/17 09:56:21;;;;;;;8.83;5.22;;;;;;;19.90;66.97;100253.81;1794096;78;21743;-75
2021/05/17 09:59:06;;;;;;;8.40;4.72;;;;;;;19.94;67.39;100254.30;1794435;79;21041;-76
2021/05/17 10:01:33;;;;;;;6.80;5.05;;;;;;;20.07;66.76;100255.84;1794340;78;21077;-75
2021/05/17 10:04:05;;;;;;;10.68;5.15;;;;;;;20.28;66.85;100244.27;1794826;79;21603;-76
2021/05/17 10:06:32;;;;;;;11.05;4.60;;;;;;;20.45;66.66;100244.99;1796000;78;21057;-81
2021/05/17 10:08:59;;;;;;;8.90;4.67;;;;;;;20.58;66.76;100248.67;1795840;79;21670;-72
2021/05/17 10:11:28;;;;;;;8.93;4.37;;;;;;;20.65;65.72;100248.78;1795139;79;21124;-73
2021/05/17 10:13:55;;;;;;;11.12;4.70;;;;;;;20.59;65.51;100252.95;1795512;79;20966;-79
2021/05/17 10:16:23;;;;;;;4.90;4.25;;;;;;;20.64;65.89;100243.70;1794771;78;21679;-79
2021/05/17 10:18:51;;;;;;;7.50;3.85;;;;;;;20.79;64.18;100244.58;1794732;79;21001;-75
2021/05/17 10:21:24;;;;;;;9.28;4.75;;;;;;;20.79;63.71;100251.99;1794895;79;21372;-75
2021/05/17 10:23:57;;;;;;;8.23;4.08;;;;;;;20.85;64.19;100254.41;1794619;79;21086;-72
2021/05/17 10:26:26;;;;;;;6.53;3.50;;;;;;;20.90;61.65;100254.72;1794728;79;21586;-75
2021/05/17 10:29:01;;;;;;;6.55;3.95;;;;;;;20.79;60.87;100253.80;1794758;79;21611;-78
2021/05/17 10:31:33;;;;;;;5.60;3.00;;;;;;;20.76;60.57;100247.07;1794926;79;21018;-76
2021/05/17 10:34:08;;;;;;;5.15;3.00;;;;;;;20.82;60.84;100248.17;1795056;79;21828;-75
2021/05/17 10:37:01;;;;;;;8.00;2.95;;;;;;;20.96;58.24;100244.25;1795044;79;21117;-75
2021/05/17 10:39:36;;;;;;;9.55;3.30;;;;;;;21.05;58.91;100243.70;1795175;79;20985;-76
2021/05/17 10:42:16;;;;;;;5.10;2.83;;;;;;;21.40;59.34;100236.45;1794935;79;20930;-75
2021/05/17 10:47:48;;;;;;;4.22;2.85;;;;;;;22.11;57.39;100230.49;1795166;79;21173;-80
2021/05/17 10:50:21;;;;;;;3.22;2.65;;;;;;;22.27;56.14;100227.33;1794951;79;21139;-81
2021/05/17 10:52:48;;;;;;;6.47;2.70;;;;;;;22.43;54.48;100224.45;1794944;79;20985;-73
2021/05/17 10:55:18;;;;;;;3.90;2.22;;;;;;;22.56;54.21;100218.77;1794995;79;21089;-76
2021/05/17 11:00:21;;;;;;;5.40;2.47;;;;;;;22.71;52.42;100212.63;1795207;79;21005;-73
2021/05/17 11:00:25;;;;;;;5.12;2.65;;;;;;;22.79;52.17;100218.59;1788043;79;21090;-78
2021/05/17 11:03:15;;;;;;;5.08;2.95;;;;;;;22.88;51.87;100212.69;1787668;78;22369;-74
2021/05/17 11:05:50;;;;;;;3.40;2.35;;;;;;;23.00;51.79;100216.44;1764997;79;21049;-75
2021/05/17 11:08:18;;;;;;;5.83;2.55;;;;;;;23.27;50.52;100206.34;1811596;79;20953;-78
2021/05/17 11:11:02;;;;;;;5.10;2.50;;;;;;;23.62;50.53;100208.00;1812835;78;21626;-72
2021/05/17 11:13:32;;;;;;;3.83;2.60;;;;;;;24.03;50.34;100201.84;1811233;79;21519;-70
2021/05/17 11:16:09;;;;;;;4.33;2.15;;;;;;;24.44;49.14;100197.27;1812570;79;21094;-80
2021/05/17 11:19:12;;;;;;;3.05;2.12;;;;;;;24.58;44.73;100194.95;1812899;79;20993;-81
2021/05/17 11:22:06;;;;;;;3.35;1.80;;;;;;;24.50;45.18;100189.03;1798286;79;21012;-82
2021/05/17 11:24:37;;;;;;;4.22;2.40;;;;;;;24.60;45.79;100184.94;1812749;78;21079;-81
2021/05/17 11:27:06;;;;;;;6.15;2.72;;;;;;;24.60;44.73;100180.17;1758464;79;21100;-76
2021/05/17 11:29:36;;;;;;;3.70;2.35;;;;;;;24.40;45.68;100181.47;1812687;78;21009;-75
2021/05/17 11:32:13;;;;;;;5.75;2.45;;;;;;;24.29;44.53;100177.25;1812510;79;21080;-80
2021/05/17 11:35:00;;;;;;;4.85;2.25;;;;;;;24.12;43.82;100174.19;1811743;77;21895;-72
2021/05/17 11:37:30;;;;;;;3.47;2.17;;;;;;;23.99;44.97;100172.79;1812493;77;21905;-78
2021/05/17 11:39:58;;;;;;;3.50;2.25;;;;;;;23.91;46.68;100188.34;1812251;79;22333;-76
2021/05/17 11:42:26;;;;;;;4.62;2.42;;;;;;;24.03;46.25;100190.73;1773364;79;21662;-77
2021/05/17 11:45:09;;;;;;;7.78;2.60;;;;;;;24.05;46.34;100182.09;1751992;79;21644;-72
2021/05/17 11:47:30;;;;;;;4.15;2.25;;;;;;;23.89;45.43;100183.77;1786445;79;27709;-73
2021/05/17 11:49:57;;;;;;;3.90;1.90;;;;;;;23.65;45.46;100186.91;1785174;79;21012;-75
2021/05/17 11:52:30;;;;;;;19.90;3.75;;;;;;;23.58;46.85;100186.88;1794975;79;21627;-74
2021/05/17 11:55:13;;;;;;;10.82;3.08;;;;;;;23.63;43.77;100184.48;1781603;80;21072;-73
2021/05/17 11:57:41;;;;;;;27.42;5.47;;;;;;;23.72;45.28;100183.79;1787555;77;20985;-78
2021/05/17 12:00:15;;;;;;;21.60;3.57;;;;;;;23.90;43.41;100184.05;1814534;79;21088;-74
2021/05/17 12:02:52;;;;;;;27.82;4.08;;;;;;;23.98;40.55;100175.94;1813046;78;21115;-74
2021/05/17 12:05:23;;;;;;;22.52;3.52;;;;;;;24.03;39.97;100167.38;1812991;79;21083;-76